sensor_id;sensor_type;location;lat;lon;timestamp;pressure;altitude;pressure_sealevel;temperature;humidity
10606;BME280;5350;42.698;23.148;2023-04-10T00:00:28;93744.81;;;5.57;100.00
10606;BME280;5350;42.698;23.148;2023-04-10T00:02:56;93737.00;;;5.62;100.00
10606;BME280;5350;42.698;23.148;2023-04-10T00:05:23;93743.28;;;5.66;100.00
10606;BME280;5350;42.698;23.148;2023-04-10T00:07:50;93737.28;;;5.66;100.00
10606;BME280;5350;42.698;23.148;2023-04-10T00:10:17;93736.50;;;5.71;100.00
10606;BME280;5350;42.698;23.148;2023-04-10T00:12:44;93737.31;;;5.76;100.00
10606;BME280;5350;42.698;23.148;2023-04-10T00:15:12;93733.94;;;5.81;100.00
10606;BME280;5350;42.698;23.148;2023-04-10T00:17:39;93735.50;;;5.82;100.00
10606;BME280;5350;42.698;23.148;2023-04-10T00:20:07;93729.50;;;5.81;100.00
10606;BME280;5350;42.698;23.148;2023-04-10T00:22:34;93724.03;;;5.83;100.00
10606;BME280;5350;42.698;23.148;2023-04-10T00:25:00;93724.66;;;6.05;100.00
10606;BME280;5350;42.698;23.148;2023-04-10T00:27:27;93731.97;;;6.03;100.00
10606;BME280;5350;42.698;23.148;2023-04-10T00:29:54;93725.41;;;6.15;100.00
10606;BME280;5350;42.698;23.148;2023-04-10T00:32:22;93722.81;;;6.10;100.00
10606;BME280;5350;42.698;23.148;2023-04-10T00:34:49;93730.34;;;5.92;100.00
10606;BME280;5350;42.698;23.148;2023-04-10T00:37:15;93725.13;;;5.92;100.00
10606;BME280;5350;42.698;23.148;2023-04-10T00:39:44;93725.13;;;5.97;100.00
10606;BME280;5350;42.698;23.148;2023-04-10T00:42:10;93722.19;;;5.78;100.00
10606;BME280;5350;42.698;23.148;2023-04-10T00:44:37;93713.03;;;5.71;100.00
10606;BME280;5350;42.698;23.148;2023-04-10T00:47:06;93728.25;;;5.84;100.00
10606;BME280;5350;42.698;23.148;2023-04-10T00:49:34;93721.22;;;5.99;100.00
10606;BME280;5350;42.698;23.148;2023-04-10T00:52:01;93716.00;;;5.99;100.00
10606;BME280;5350;42.698;23.148;2023-04-10T00:54:28;93717.88;;;6.19;100.00
10606;BME280;5350;42.698;23.148;2023-04-10T00:56:56;93711.34;;;6.26;100.00
10606;BME280;5350;42.698;23.148;2023-04-10T00:59:24;93713.69;;;6.18;100.00
10606;BME280;5350;42.698;23.148;2023-04-10T01:01:50;93703.78;;;6.35;100.00
10606;BME280;5350;42.698;23.148;2023-04-10T01:04:17;93707.97;;;6.31;100.00
10606;BME280;5350;42.698;23.148;2023-04-10T01:06:52;93712.41;;;6.51;100.00
10606;BME280;5350;42.698;23.148;2023-04-10T01:09:32;93710.59;;;6.56;100.00
10606;BME280;5350;42.698;23.148;2023-04-10T01:12:08;93706.91;;;6.57;100.00
10606;BME280;5350;42.698;23.148;2023-04-10T01:14:41;93713.22;;;6.61;100.00
10606;BME280;5350;42.698;23.148;2023-04-10T01:17:15;93711.63;;;6.65;100.00
10606;BME280;5350;42.698;23.148;2023-04-10T01:19:59;93714.75;;;6.62;100.00
10606;BME280;5350;42.698;23.148;2023-04-10T01:22:34;93712.66;;;6.64;100.00
10606;BME280;5350;42.698;23.148;2023-04-10T01:25:18;93707.44;;;6.64;100.00
10606;BME280;5350;42.698;23.148;2023-04-10T01:28:05;93707.47;;;6.59;100.00
10606;BME280;5350;42.698;23.148;2023-04-10T01:30:35;93704.56;;;6.56;100.00
10606;BME280;5350;42.698;23.148;2023-04-10T01:33:04;93703.25;;;6.58;100.00
10606;BME280;5350;42.698;23.148;2023-04-10T01:35:35;93699.59;;;6.49;100.00
10606;BME280;5350;42.698;23.148;2023-04-10T01:38:04;93698.31;;;6.57;100.00
10606;BME280;5350;42.698;23.148;2023-04-10T01:40:33;93697.53;;;6.61;100.00
10606;BME280;5350;42.698;23.148;2023-04-10T01:43:05;93707.69;;;6.58;100.00
10606;BME280;5350;42.698;23.148;2023-04-10T01:45:34;93706.91;;;6.62;100.00
10606;BME280;5350;42.698;23.148;2023-04-10T01:48:01;93699.59;;;6.69;100.00
10606;BME280;5350;42.698;23.148;2023-04-10T01:50:29;93701.69;;;6.77;100.00
10606;BME280;5350;42.698;23.148;2023-04-10T01:52:58;93698.25;;;6.87;100.00
10606;BME280;5350;42.698;23.148;2023-04-10T01:55:26;93698.00;;;6.98;100.00
10606;BME280;5350;42.698;23.148;2023-04-10T01:57:53;93694.84;;;6.86;100.00
10606;BME280;5350;42.698;23.148;2023-04-10T02:00:20;93712.13;;;6.87;100.00
10606;BME280;5350;42.698;23.148;2023-04-10T02:02:49;93703.22;;;6.93;100.00
10606;BME280;5350;42.698;23.148;2023-04-10T02:05:16;93703.22;;;6.93;100.00
10606;BME280;5350;42.698;23.148;2023-04-10T02:07:45;93700.63;;;6.93;100.00
10606;BME280;5350;42.698;23.148;2023-04-10T02:10:18;93698.03;;;6.88;100.00
10606;BME280;5350;42.698;23.148;2023-04-10T02:12:51;93682.34;;;6.88;100.00
10606;BME280;5350;42.698;23.148;2023-04-10T02:15:22;93690.94;;;6.94;100.00
10606;BME280;5350;42.698;23.148;2023-04-10T02:17:51;93693.84;;;6.92;100.00
10606;BME280;5350;42.698;23.148;2023-04-10T02:20:18;93694.34;;;6.89;100.00
10606;BME280;5350;42.698;23.148;2023-04-10T02:22:45;93688.34;;;6.84;100.00
10606;BME280;5350;42.698;23.148;2023-04-10T02:25:12;93696.44;;;6.82;100.00
10606;BME280;5350;42.698;23.148;2023-04-10T02:27:40;93680.00;;;6.67;100.00
10606;BME280;5350;42.698;23.148;2023-04-10T02:30:07;93686.00;;;6.72;100.00
10606;BME280;5350;42.698;23.148;2023-04-10T02:32:34;93681.56;;;6.73;100.00
10606;BME280;5350;42.698;23.148;2023-04-10T02:35:03;93675.28;;;6.64;100.00
10606;BME280;5350;42.698;23.148;2023-04-10T02:37:30;93678.94;;;6.58;100.00
10606;BME280;5350;42.698;23.148;2023-04-10T02:39:57;93669.56;;;6.57;100.00
10606;BME280;5350;42.698;23.148;2023-04-10T02:42:24;93672.94;;;6.52;100.00
10606;BME280;5350;42.698;23.148;2023-04-10T02:44:51;93663.53;;;6.56;100.00
10606;BME280;5350;42.698;23.148;2023-04-10T02:47:18;93667.72;;;6.62;100.00
10606;BME280;5350;42.698;23.148;2023-04-10T02:49:44;93666.41;;;6.65;100.00
10606;BME280;5350;42.698;23.148;2023-04-10T02:52:13;93657.78;;;6.69;100.00
10606;BME280;5350;42.698;23.148;2023-04-10T02:54:40;93657.00;;;6.74;100.00
10606;BME280;5350;42.698;23.148;2023-04-10T02:57:07;93648.88;;;6.70;100.00
10606;BME280;5350;42.698;23.148;2023-04-10T02:59:34;93667.69;;;6.87;100.00
10606;BME280;5350;42.698;23.148;2023-04-10T03:02:00;93661.38;;;6.98;100.00
10606;BME280;5350;42.698;23.148;2023-04-10T03:04:27;93662.66;;;7.01;100.00
10606;BME280;5350;42.698;23.148;2023-04-10T03:06:56;93664.56;;;6.90;100.00
10606;BME280;5350;42.698;23.148;2023-04-10T03:09:25;93653.59;;;6.73;100.00
10606;BME280;5350;42.698;23.148;2023-04-10T03:11:51;93652.81;;;6.58;100.00
10606;BME280;5350;42.698;23.148;2023-04-10T03:14:18;93655.44;;;6.53;100.00
10606;BME280;5350;42.698;23.148;2023-04-10T03:16:45;93657.78;;;6.54;100.00
10606;BME280;5350;42.698;23.148;2023-04-10T03:19:12;93659.63;;;6.54;100.00
10606;BME280;5350;42.698;23.148;2023-04-10T03:21:39;93660.94;;;6.56;100.00
10606;BME280;5350;42.698;23.148;2023-04-10T03:24:05;93659.09;;;6.57;100.00
10606;BME280;5350;42.698;23.148;2023-04-10T03:26:33;93669.56;;;6.57;100.00
10606;BME280;5350;42.698;23.148;2023-04-10T03:29:00;93666.94;;;6.62;100.00
10606;BME280;5350;42.698;23.148;2023-04-10T03:31:28;93671.38;;;6.61;100.00
10606;BME280;5350;42.698;23.148;2023-04-10T03:33:55;93668.00;;;6.45;100.00
10606;BME280;5350;42.698;23.148;2023-04-10T03:36:22;93669.81;;;6.45;100.00
10606;BME280;5350;42.698;23.148;2023-04-10T03:38:48;93666.94;;;6.36;100.00
10606;BME280;5350;42.698;23.148;2023-04-10T03:41:17;93676.09;;;6.34;100.00
10606;BME280;5350;42.698;23.148;2023-04-10T03:43:45;93671.38;;;6.31;100.00
10606;BME280;5350;42.698;23.148;2023-04-10T03:46:12;93674.00;;;6.36;100.00
10606;BME280;5350;42.698;23.148;2023-04-10T03:48:39;93683.91;;;6.29;100.00
10606;BME280;5350;42.698;23.148;2023-04-10T03:51:06;93681.28;;;6.24;100.00
10606;BME280;5350;42.698;23.148;2023-04-10T03:53:33;93684.97;;;6.23;100.00
10606;BME280;5350;42.698;23.148;2023-04-10T03:56:00;93688.56;;;5.92;100.00
10606;BME280;5350;42.698;23.148;2023-04-10T03:58:27;93685.66;;;5.83;100.00
10606;BME280;5350;42.698;23.148;2023-04-10T04:00:55;93688.75;;;5.65;100.00
10606;BME280;5350;42.698;23.148;2023-04-10T04:03:22;93686.84;;;5.45;100.00
10606;BME280;5350;42.698;23.148;2023-04-10T04:05:49;93698.34;;;5.49;100.00
10606;BME280;5350;42.698;23.148;2023-04-10T04:08:16;93685.75;;;5.31;100.00
10606;BME280;5350;42.698;23.148;2023-04-10T04:10:43;93683.56;;;5.08;100.00
10606;BME280;5350;42.698;23.148;2023-04-10T04:13:09;93687.09;;;4.87;100.00
10606;BME280;5350;42.698;23.148;2023-04-10T04:15:36;93693.56;;;4.84;100.00
10606;BME280;5350;42.698;23.148;2023-04-10T04:18:04;93695.34;;;4.74;100.00
10606;BME280;5350;42.698;23.148;2023-04-10T04:20:31;93677.16;;;4.84;100.00
10606;BME280;5350;42.698;23.148;2023-04-10T04:22:58;93686.88;;;4.99;100.00
10606;BME280;5350;42.698;23.148;2023-04-10T04:25:25;93694.78;;;5.09;100.00
10606;BME280;5350;42.698;23.148;2023-04-10T04:27:51;93691.94;;;5.20;100.00
10606;BME280;5350;42.698;23.148;2023-04-10T04:30:18;93698.25;;;5.29;100.00
10606;BME280;5350;42.698;23.148;2023-04-10T04:32:45;93695.91;;;5.33;100.00
10606;BME280;5350;42.698;23.148;2023-04-10T04:35:13;93705.03;;;5.30;100.00
10606;BME280;5350;42.698;23.148;2023-04-10T04:37:39;93702.50;;;5.45;100.00
10606;BME280;5350;42.698;23.148;2023-04-10T04:40:07;93707.16;;;5.33;100.00
10606;BME280;5350;42.698;23.148;2023-04-10T04:42:34;93705.66;;;5.52;100.00
10606;BME280;5350;42.698;23.148;2023-04-10T04:45:01;93712.38;;;5.33;100.00
10606;BME280;5350;42.698;23.148;2023-04-10T04:47:28;93709.28;;;5.46;100.00
10606;BME280;5350;42.698;23.148;2023-04-10T04:49:55;93719.97;;;5.45;100.00
10606;BME280;5350;42.698;23.148;2023-04-10T04:52:23;93712.91;;;5.40;100.00
10606;BME280;5350;42.698;23.148;2023-04-10T04:54:49;93710.88;;;5.57;100.00
10606;BME280;5350;42.698;23.148;2023-04-10T04:57:16;93716.34;;;5.46;100.00
10606;BME280;5350;42.698;23.148;2023-04-10T04:59:43;93721.34;;;5.62;100.00
10606;BME280;5350;42.698;23.148;2023-04-10T05:02:10;93722.44;;;5.77;100.00
10606;BME280;5350;42.698;23.148;2023-04-10T05:04:36;93717.81;;;5.94;100.00
10606;BME280;5350;42.698;23.148;2023-04-10T05:07:03;93721.50;;;6.08;100.00
10606;BME280;5350;42.698;23.148;2023-04-10T05:09:31;93722.03;;;6.20;100.00
10606;BME280;5350;42.698;23.148;2023-04-10T05:11:58;93730.44;;;6.32;100.00
10606;BME280;5350;42.698;23.148;2023-04-10T05:14:24;93732.50;;;6.25;100.00
10606;BME280;5350;42.698;23.148;2023-04-10T05:16:51;93727.81;;;6.37;100.00
10606;BME280;5350;42.698;23.148;2023-04-10T05:19:18;93736.19;;;6.44;100.00
10606;BME280;5350;42.698;23.148;2023-04-10T05:21:44;93727.56;;;6.43;100.00
10606;BME280;5350;42.698;23.148;2023-04-10T05:24:11;93726.25;;;6.56;100.00
10606;BME280;5350;42.698;23.148;2023-04-10T05:26:39;93730.97;;;6.59;100.00
10606;BME280;5350;42.698;23.148;2023-04-10T05:29:07;93726.00;;;6.73;100.00
10606;BME280;5350;42.698;23.148;2023-04-10T05:31:33;93735.91;;;6.81;100.00
10606;BME280;5350;42.698;23.148;2023-04-10T05:34:00;93730.94;;;6.84;100.00
10606;BME280;5350;42.698;23.148;2023-04-10T05:36:27;93738.28;;;6.87;100.00
10606;BME280;5350;42.698;23.148;2023-04-10T05:38:53;93740.09;;;6.92;100.00
10606;BME280;5350;42.698;23.148;2023-04-10T05:41:20;93729.91;;;6.95;100.00
10606;BME280;5350;42.698;23.148;2023-04-10T05:43:48;93743.47;;;7.07;100.00
10606;BME280;5350;42.698;23.148;2023-04-10T05:46:15;93736.16;;;7.19;100.00
10606;BME280;5350;42.698;23.148;2023-04-10T05:48:42;93723.31;;;7.18;100.00
10606;BME280;5350;42.698;23.148;2023-04-10T05:51:09;93738.19;;;7.38;100.00
10606;BME280;5350;42.698;23.148;2023-04-10T05:53:35;93736.34;;;7.43;100.00
10606;BME280;5350;42.698;23.148;2023-04-10T05:56:02;93741.53;;;7.53;100.00
10606;BME280;5350;42.698;23.148;2023-04-10T05:58:29;93741.28;;;7.55;100.00
10606;BME280;5350;42.698;23.148;2023-04-10T06:00:57;93742.78;;;7.71;100.00
10606;BME280;5350;42.698;23.148;2023-04-10T06:03:24;93737.75;;;7.84;100.00
10606;BME280;5350;42.698;23.148;2023-04-10T06:05:53;93739.50;;;7.99;100.00
10606;BME280;5350;42.698;23.148;2023-04-10T06:08:20;93743.94;;;8.08;100.00
10606;BME280;5350;42.698;23.148;2023-04-10T06:10:47;93745.47;;;8.20;100.00
10606;BME280;5350;42.698;23.148;2023-04-10T06:13:14;93748.88;;;8.15;100.00
10606;BME280;5350;42.698;23.148;2023-04-10T06:15:41;93746.28;;;8.10;100.00
10606;BME280;5350;42.698;23.148;2023-04-10T06:18:09;93743.06;;;8.23;100.00
10606;BME280;5350;42.698;23.148;2023-04-10T06:20:35;93732.56;;;8.28;100.00
10606;BME280;5350;42.698;23.148;2023-04-10T06:23:02;93748.56;;;8.32;100.00
10606;BME280;5350;42.698;23.148;2023-04-10T06:25:29;93740.69;;;8.32;100.00
10606;BME280;5350;42.698;23.148;2023-04-10T06:27:56;93734.38;;;8.33;100.00
10606;BME280;5350;42.698;23.148;2023-04-10T06:30:23;93740.84;;;8.45;100.00
10606;BME280;5350;42.698;23.148;2023-04-10T06:32:50;93731.91;;;8.51;100.00
10606;BME280;5350;42.698;23.148;2023-04-10T06:35:18;93733.59;;;8.71;100.00
10606;BME280;5350;42.698;23.148;2023-04-10T06:37:45;93731.72;;;8.76;100.00
10606;BME280;5350;42.698;23.148;2023-04-10T06:40:13;93735.91;;;8.77;100.00
10606;BME280;5350;42.698;23.148;2023-04-10T06:42:39;93736.72;;;8.78;100.00
10606;BME280;5350;42.698;23.148;2023-04-10T06:45:07;93733.78;;;8.79;100.00
10606;BME280;5350;42.698;23.148;2023-04-10T06:47:34;93729.88;;;9.06;100.00
10606;BME280;5350;42.698;23.148;2023-04-10T06:50:01;93735.03;;;9.16;100.00
10606;BME280;5350;42.698;23.148;2023-04-10T06:52:29;93734.34;;;9.34;100.00
10606;BME280;5350;42.698;23.148;2023-04-10T06:54:56;93740.53;;;9.43;100.00
10606;BME280;5350;42.698;23.148;2023-04-10T06:57:22;93738.22;;;9.41;100.00
10606;BME280;5350;42.698;23.148;2023-04-10T06:59:49;93734.03;;;9.40;100.00
10606;BME280;5350;42.698;23.148;2023-04-10T07:02:16;93738.22;;;9.41;100.00
10606;BME280;5350;42.698;23.148;2023-04-10T07:04:42;93742.09;;;9.49;100.00
10606;BME280;5350;42.698;23.148;2023-04-10T07:07:10;93743.16;;;9.43;100.00
10606;BME280;5350;42.698;23.148;2023-04-10T07:09:39;93741.50;;;9.52;100.00
10606;BME280;5350;42.698;23.148;2023-04-10T07:12:07;93745.09;;;9.61;100.00
10606;BME280;5350;42.698;23.148;2023-04-10T07:14:33;93748.78;;;9.60;100.00
10606;BME280;5350;42.698;23.148;2023-04-10T07:17:01;93742.31;;;9.52;100.00
10606;BME280;5350;42.698;23.148;2023-04-10T07:19:27;93735.81;;;9.45;100.00
10606;BME280;5350;42.698;23.148;2023-04-10T07:21:54;93733.59;;;9.57;100.00
10606;BME280;5350;42.698;23.148;2023-04-10T07:24:21;93746.84;;;9.47;100.00
10606;BME280;5350;42.698;23.148;2023-04-10T07:26:49;93734.09;;;9.59;100.00
10606;BME280;5350;42.698;23.148;2023-04-10T07:29:16;93737.38;;;9.46;99.07
10606;BME280;5350;42.698;23.148;2023-04-10T07:31:42;93744.63;;;9.30;98.37
10606;BME280;5350;42.698;23.148;2023-04-10T07:34:09;93743.28;;;9.33;96.52
10606;BME280;5350;42.698;23.148;2023-04-10T07:36:36;93737.22;;;9.09;98.29
10606;BME280;5350;42.698;23.148;2023-04-10T07:39:03;93745.59;;;9.11;96.68
10606;BME280;5350;42.698;23.148;2023-04-10T07:41:30;93747.13;;;9.17;97.91
10606;BME280;5350;42.698;23.148;2023-04-10T07:43:58;93739.47;;;9.20;97.74
10606;BME280;5350;42.698;23.148;2023-04-10T07:46:25;93744.00;;;9.15;97.72
10606;BME280;5350;42.698;23.148;2023-04-10T07:48:52;93739.25;;;9.17;97.72
10606;BME280;5350;42.698;23.148;2023-04-10T07:51:19;93750.75;;;9.21;97.82
10606;BME280;5350;42.698;23.148;2023-04-10T07:53:46;93750.03;;;9.15;97.74
10606;BME280;5350;42.698;23.148;2023-04-10T07:56:16;93740.84;;;9.13;96.94
10606;BME280;5350;42.698;23.148;2023-04-10T07:58:43;93747.31;;;9.25;97.04
10606;BME280;5350;42.698;23.148;2023-04-10T08:01:12;93747.88;;;9.46;96.54
10606;BME280;5350;42.698;23.148;2023-04-10T08:03:39;93744.03;;;9.62;97.11
10606;BME280;5350;42.698;23.148;2023-04-10T08:06:07;93744.53;;;9.88;100.00
10606;BME280;5350;42.698;23.148;2023-04-10T08:08:35;93739.78;;;10.13;95.41
10606;BME280;5350;42.698;23.148;2023-04-10T08:11:02;93743.09;;;10.19;93.74
10606;BME280;5350;42.698;23.148;2023-04-10T08:13:29;93741.63;;;10.31;91.73
10606;BME280;5350;42.698;23.148;2023-04-10T08:15:56;93740.06;;;10.30;89.15
10606;BME280;5350;42.698;23.148;2023-04-10T08:18:24;93751.78;;;10.57;89.91
10606;BME280;5350;42.698;23.148;2023-04-10T08:20:50;93736.44;;;10.64;88.77
10606;BME280;5350;42.698;23.148;2023-04-10T08:23:17;93744.66;;;10.76;88.49
10606;BME280;5350;42.698;23.148;2023-04-10T08:25:44;93744.94;;;10.93;87.84
10606;BME280;5350;42.698;23.148;2023-04-10T08:28:11;93742.81;;;10.95;84.87
10606;BME280;5350;42.698;23.148;2023-04-10T08:30:38;93742.94;;;11.17;85.70
10606;BME280;5350;42.698;23.148;2023-04-10T08:33:04;93744.53;;;11.32;86.33
10606;BME280;5350;42.698;23.148;2023-04-10T08:35:33;93747.09;;;11.50;84.74
10606;BME280;5350;42.698;23.148;2023-04-10T08:37:59;93730.72;;;11.53;80.82
10606;BME280;5350;42.698;23.148;2023-04-10T08:40:26;93732.34;;;11.36;80.13
10606;BME280;5350;42.698;23.148;2023-04-10T08:42:53;93730.31;;;11.46;81.41
10606;BME280;5350;42.698;23.148;2023-04-10T08:45:20;93738.09;;;11.70;76.67
10606;BME280;5350;42.698;23.148;2023-04-10T08:47:47;93726.84;;;11.91;81.35
10606;BME280;5350;42.698;23.148;2023-04-10T08:50:17;93729.97;;;11.93;75.65
10606;BME280;5350;42.698;23.148;2023-04-10T08:52:45;93735.34;;;12.02;74.40
10606;BME280;5350;42.698;23.148;2023-04-10T08:55:16;93730.16;;;11.83;73.31
10606;BME280;5350;42.698;23.148;2023-04-10T08:57:42;93727.81;;;11.68;72.20
10606;BME280;5350;42.698;23.148;2023-04-10T09:00:11;93736.09;;;11.62;71.29
10606;BME280;5350;42.698;23.148;2023-04-10T09:02:38;93727.69;;;11.46;71.01
10606;BME280;5350;42.698;23.148;2023-04-10T09:05:09;93724.72;;;11.20;71.84
10606;BME280;5350;42.698;23.148;2023-04-10T09:07:36;93727.16;;;11.31;74.27
10606;BME280;5350;42.698;23.148;2023-04-10T09:10:05;93725.00;;;11.19;70.84
10606;BME280;5350;42.698;23.148;2023-04-10T09:12:42;93723.53;;;11.13;70.39
10606;BME280;5350;42.698;23.148;2023-04-10T09:15:09;93721.31;;;10.88;69.69
10606;BME280;5350;42.698;23.148;2023-04-10T09:17:36;93710.75;;;11.06;70.21
10606;BME280;5350;42.698;23.148;2023-04-10T09:20:19;93719.06;;;11.27;73.07
10606;BME280;5350;42.698;23.148;2023-04-10T09:22:46;93714.59;;;11.41;70.98
10606;BME280;5350;42.698;23.148;2023-04-10T09:25:32;93714.53;;;11.46;67.29
10606;BME280;5350;42.698;23.148;2023-04-10T09:28:00;93712.72;;;11.14;69.45
10606;BME280;5350;42.698;23.148;2023-04-10T09:30:35;93715.69;;;10.94;69.26
10606;BME280;5350;42.698;23.148;2023-04-10T09:33:20;93708.22;;;10.83;69.85
10606;BME280;5350;42.698;23.148;2023-04-10T09:35:47;93704.59;;;10.47;72.29
10606;BME280;5350;42.698;23.148;2023-04-10T09:38:15;93715.13;;;10.47;75.45
10606;BME280;5350;42.698;23.148;2023-04-10T09:40:44;93685.41;;;10.09;74.76
10606;BME280;5350;42.698;23.148;2023-04-10T09:43:18;93696.97;;;10.08;76.29
10606;BME280;5350;42.698;23.148;2023-04-10T09:45:46;93704.56;;;9.91;77.33
10606;BME280;5350;42.698;23.148;2023-04-10T09:48:13;93702.00;;;10.04;79.70
10606;BME280;5350;42.698;23.148;2023-04-10T09:50:40;93707.38;;;10.18;78.25
10606;BME280;5350;42.698;23.148;2023-04-10T09:53:07;93702.63;;;10.20;77.37
10606;BME280;5350;42.698;23.148;2023-04-10T09:55:34;93706.59;;;10.17;77.41
10606;BME280;5350;42.698;23.148;2023-04-10T09:58:03;93693.03;;;10.29;79.34
10606;BME280;5350;42.698;23.148;2023-04-10T10:00:31;93704.31;;;10.29;77.61
10606;BME280;5350;42.698;23.148;2023-04-10T10:03:02;93695.13;;;10.45;76.38
10606;BME280;5350;42.698;23.148;2023-04-10T10:05:34;93704.13;;;10.26;74.15
10606;BME280;5350;42.698;23.148;2023-04-10T10:08:01;93691.81;;;10.40;75.75
10606;BME280;5350;42.698;23.148;2023-04-10T10:10:29;93697.50;;;10.28;75.55
10606;BME280;5350;42.698;23.148;2023-04-10T10:12:58;93700.75;;;10.20;79.06
10606;BME280;5350;42.698;23.148;2023-04-10T10:15:35;93696.00;;;10.22;78.30
10606;BME280;5350;42.698;23.148;2023-04-10T10:18:06;93691.38;;;10.14;82.35
10606;BME280;5350;42.698;23.148;2023-04-10T10:20:37;93689.75;;;10.18;84.82
10606;BME280;5350;42.698;23.148;2023-04-10T10:23:05;93701.56;;;9.97;82.50
10606;BME280;5350;42.698;23.148;2023-04-10T10:25:34;93694.31;;;9.89;83.41
10606;BME280;5350;42.698;23.148;2023-04-10T10:28:02;93689.84;;;10.13;80.07
10606;BME280;5350;42.698;23.148;2023-04-10T10:30:31;93690.81;;;10.17;80.45
10606;BME280;5350;42.698;23.148;2023-04-10T10:33:00;93673.28;;;10.31;83.99
10606;BME280;5350;42.698;23.148;2023-04-10T10:35:29;93682.09;;;10.40;86.26
10606;BME280;5350;42.698;23.148;2023-04-10T10:37:58;93680.97;;;10.28;80.90
10606;BME280;5350;42.698;23.148;2023-04-10T10:40:28;93670.63;;;10.31;82.34
10606;BME280;5350;42.698;23.148;2023-04-10T10:43:04;93679.59;;;10.49;81.24
10606;BME280;5350;42.698;23.148;2023-04-10T10:45:39;93670.75;;;10.59;78.19
10606;BME280;5350;42.698;23.148;2023-04-10T10:48:09;93674.84;;;10.65;77.53
10606;BME280;5350;42.698;23.148;2023-04-10T10:50:55;93677.63;;;10.87;77.75
10606;BME280;5350;42.698;23.148;2023-04-10T10:53:34;93672.19;;;10.83;76.45
10606;BME280;5350;42.698;23.148;2023-04-10T10:56:32;93659.19;;;11.19;73.16
10606;BME280;5350;42.698;23.148;2023-04-10T10:58:59;93658.91;;;11.88;73.50
10606;BME280;5350;42.698;23.148;2023-04-10T11:01:27;93674.78;;;12.11;65.50
10606;BME280;5350;42.698;23.148;2023-04-10T11:03:54;93665.41;;;12.18;64.97
10606;BME280;5350;42.698;23.148;2023-04-10T11:06:48;93665.25;;;12.37;62.26
10606;BME280;5350;42.698;23.148;2023-04-10T11:09:43;93661.75;;;12.28;65.16
10606;BME280;5350;42.698;23.148;2023-04-10T11:12:10;93647.00;;;12.27;64.10
10606;BME280;5350;42.698;23.148;2023-04-10T11:14:36;93659.50;;;12.35;65.86
10606;BME280;5350;42.698;23.148;2023-04-10T11:17:05;93645.75;;;12.24;65.91
10606;BME280;5350;42.698;23.148;2023-04-10T11:19:56;93642.34;;;12.24;66.95
10606;BME280;5350;42.698;23.148;2023-04-10T11:22:24;93652.56;;;12.25;64.13
10606;BME280;5350;42.698;23.148;2023-04-10T11:24:59;93642.00;;;12.03;63.51
10606;BME280;5350;42.698;23.148;2023-04-10T11:27:43;93646.72;;;11.92;64.80
10606;BME280;5350;42.698;23.148;2023-04-10T11:30:33;93630.91;;;11.92;64.64
10606;BME280;5350;42.698;23.148;2023-04-10T11:33:03;93639.69;;;11.88;64.00
10606;BME280;5350;42.698;23.148;2023-04-10T11:35:31;93638.47;;;12.08;65.02
10606;BME280;5350;42.698;23.148;2023-04-10T11:38:11;93654.34;;;12.16;64.44
10606;BME280;5350;42.698;23.148;2023-04-10T11:40:58;93637.63;;;11.98;64.62
10606;BME280;5350;42.698;23.148;2023-04-10T11:43:26;93635.47;;;12.23;63.42
10606;BME280;5350;42.698;23.148;2023-04-10T11:46:00;93633.28;;;12.38;60.77
10606;BME280;5350;42.698;23.148;2023-04-10T11:48:28;93645.13;;;12.41;59.07
10606;BME280;5350;42.698;23.148;2023-04-10T11:50:55;93638.38;;;12.79;56.84
10606;BME280;5350;42.698;23.148;2023-04-10T11:53:22;93630.31;;;13.06;62.44
10606;BME280;5350;42.698;23.148;2023-04-10T11:55:49;93631.81;;;13.60;57.70
10606;BME280;5350;42.698;23.148;2023-04-10T11:58:23;93626.97;;;13.71;57.67
10606;BME280;5350;42.698;23.148;2023-04-10T12:01:00;93617.19;;;13.23;59.02
10606;BME280;5350;42.698;23.148;2023-04-10T12:03:34;93617.47;;;13.13;56.67
10606;BME280;5350;42.698;23.148;2023-04-10T12:06:02;93618.31;;;13.00;58.28
10606;BME280;5350;42.698;23.148;2023-04-10T12:08:30;93607.97;;;13.12;60.11
10606;BME280;5350;42.698;23.148;2023-04-10T12:10:57;93620.72;;;12.88;56.89
10606;BME280;5350;42.698;23.148;2023-04-10T12:13:24;93610.00;;;12.84;57.40
10606;BME280;5350;42.698;23.148;2023-04-10T12:15:51;93599.72;;;12.74;59.93
10606;BME280;5350;42.698;23.148;2023-04-10T12:18:18;93594.25;;;12.71;59.23
10606;BME280;5350;42.698;23.148;2023-04-10T12:20:47;93610.53;;;12.73;57.75
10606;BME280;5350;42.698;23.148;2023-04-10T12:23:16;93607.69;;;12.61;60.46
10606;BME280;5350;42.698;23.148;2023-04-10T12:25:44;93605.78;;;12.53;59.62
10606;BME280;5350;42.698;23.148;2023-04-10T12:28:16;93606.03;;;12.43;60.01
10606;BME280;5350;42.698;23.148;2023-04-10T12:30:48;93603.63;;;12.55;63.46
10606;BME280;5350;42.698;23.148;2023-04-10T12:33:21;93602.53;;;12.12;65.39
10606;BME280;5350;42.698;23.148;2023-04-10T12:35:50;93606.13;;;11.66;73.45
10606;BME280;5350;42.698;23.148;2023-04-10T12:38:33;93603.81;;;11.38;78.92
10606;BME280;5350;42.698;23.148;2023-04-10T12:41:00;93611.53;;;11.34;82.45
10606;BME280;5350;42.698;23.148;2023-04-10T12:43:31;93610.81;;;11.15;86.00
10606;BME280;5350;42.698;23.148;2023-04-10T12:45:59;93611.41;;;10.98;85.96
10606;BME280;5350;42.698;23.148;2023-04-10T12:48:25;93610.00;;;10.74;86.73
10606;BME280;5350;42.698;23.148;2023-04-10T12:50:54;93612.88;;;10.59;87.06
10606;BME280;5350;42.698;23.148;2023-04-10T12:53:20;93618.97;;;10.40;89.69
10606;BME280;5350;42.698;23.148;2023-04-10T12:56:01;93615.84;;;10.01;95.63
10606;BME280;5350;42.698;23.148;2023-04-10T12:58:29;93631.19;;;9.57;99.58
10606;BME280;5350;42.698;23.148;2023-04-10T13:00:57;93629.47;;;9.24;100.00
10606;BME280;5350;42.698;23.148;2023-04-10T13:03:24;93641.88;;;8.95;100.00
10606;BME280;5350;42.698;23.148;2023-04-10T13:05:51;93644.56;;;8.56;100.00
10606;BME280;5350;42.698;23.148;2023-04-10T13:08:20;93646.06;;;8.33;100.00